St Louis Regional Airport
KALN : rendu visible

Aérodrome :











RETROUVEZ-NOUS SUR...

 
LOGIN :

S'inscrire | Disclaimer

   EN    FR    IT 

 









Légende :    VFR   VFR Marginal   IFR   IFR Intensif   IFR Très Intensif
Visi : 
Plafond : 
>= 8 km
>= 3000ft
5 à 8 km
1000 à 3000 ft
1500m à 5 km
500 à 1000 ft
800 à 1500m
200 à 500 ft
< 800m
< 200 ft
Symboles :   Orages  Brouillard  Fortes neiges  Fortes précipitations  Vent > 20 kt






- Altitude de l'aérodrome : 544 ft


KALN - St Louis Regional

DERNIER METAR :
  • 010535Z AUTO 00000KT 10SM CLR 04/03 A3003 RMK AO2 T00410029

METARs EXPIRÉS :
  • 010515Z AUTO 00000KT 10SM CLR 04/03 A3004 RMK AO2 T00440029
  • 010455Z AUTO 00000KT 10SM CLR 05/03 A3004 RMK AO2 T00460030
  • 010435Z AUTO 00000KT 10SM CLR 05/03 A3004 RMK AO2 T00500030
  • 010415Z AUTO 00000KT 10SM CLR 05/03 A3004 RMK AO2 T00530031
  • 010355Z AUTO 00000KT 10SM CLR 06/03 A3004 RMK AO2 T00550032
  • 010335Z AUTO 05003KT 10SM CLR 06/04 A3003 RMK AO2 T00580035
  • 010315Z AUTO 05004KT 10SM CLR 07/04 A3003 RMK AO2 T00650036
  • 010250Z 03005KT 10SM SKC 07/04 A3003

TAF N/A



MET'MAP, la Météo Aéronautique d'un coup d'oeil ! - Copyright ORBIFLY Décembre 2007 - Disclaimer

ORBIFLY MET'MAP TEAM :

Programmation & Développement : Alexandra Zaïnal
Sur une idée originale de : Baudouin d'Aumeries
Assistance à la programmation : Marc-Olivier Méhu
Soutien technique & logistique : Manuel Goepfert

Contact : metmap@orbifly.com




SOURCES & CREDITS :

   NOAA       Earth
Advisory